Terminal Aerodrome Forecast
Issued by NWS Tuscon, AZ

Current Version | Previous Version | Text Only | Print | Product List | Glossary On
Versions: 1 2 3 4 5 6 7 8 9 10 11 12
000
FTUS45 KTWC 251100
TAFTUS
TAF
KTUS 251120Z 2512/2612 15011KT P6SM SKC
     FM251900 23007KT P6SM SKC
     FM252200 30009KT P6SM SCT120
     FM260700 14007KT P6SM BKN110=

USA.gov is the U.S. government's official web portal to all federal, state and local government web resources and services.